sensor_id;sensor_type;location;lat;lon;timestamp;P1;durP1;ratioP1;P2;durP2;ratioP2
6852;SDS011;3465;42.144;24.722;2023-03-21T00:00:22;29.30;;;15.30;;
6852;SDS011;3465;42.144;24.722;2023-03-21T00:02:47;28.57;;;15.30;;
6852;SDS011;3465;42.144;24.722;2023-03-21T00:05:13;26.73;;;14.73;;
6852;SDS011;3465;42.144;24.722;2023-03-21T00:07:38;30.20;;;15.80;;
6852;SDS011;3465;42.144;24.722;2023-03-21T00:10:04;25.37;;;15.27;;
6852;SDS011;3465;42.144;24.722;2023-03-21T00:12:30;32.93;;;16.20;;
6852;SDS011;3465;42.144;24.722;2023-03-21T00:14:56;36.33;;;16.17;;
6852;SDS011;3465;42.144;24.722;2023-03-21T00:17:28;27.53;;;14.70;;
6852;SDS011;3465;42.144;24.722;2023-03-21T00:19:57;29.73;;;15.47;;
6852;SDS011;3465;42.144;24.722;2023-03-21T00:22:23;31.57;;;15.90;;
6852;SDS011;3465;42.144;24.722;2023-03-21T00:24:49;33.70;;;16.60;;
6852;SDS011;3465;42.144;24.722;2023-03-21T00:27:16;35.13;;;15.97;;
6852;SDS011;3465;42.144;24.722;2023-03-21T00:29:43;30.27;;;15.77;;
6852;SDS011;3465;42.144;24.722;2023-03-21T00:32:09;28.03;;;15.80;;
6852;SDS011;3465;42.144;24.722;2023-03-21T00:34:34;32.47;;;17.03;;
6852;SDS011;3465;42.144;24.722;2023-03-21T00:37:02;34.73;;;16.63;;
6852;SDS011;3465;42.144;24.722;2023-03-21T00:39:28;30.13;;;16.30;;
6852;SDS011;3465;42.144;24.722;2023-03-21T00:41:53;31.43;;;16.27;;
6852;SDS011;3465;42.144;24.722;2023-03-21T00:44:18;27.93;;;16.37;;
6852;SDS011;3465;42.144;24.722;2023-03-21T00:46:45;29.33;;;16.33;;
6852;SDS011;3465;42.144;24.722;2023-03-21T00:49:10;30.03;;;15.57;;
6852;SDS011;3465;42.144;24.722;2023-03-21T00:51:36;30.03;;;16.57;;
6852;SDS011;3465;42.144;24.722;2023-03-21T00:54:02;33.90;;;17.27;;
6852;SDS011;3465;42.144;24.722;2023-03-21T00:56:30;28.57;;;16.13;;
6852;SDS011;3465;42.144;24.722;2023-03-21T00:58:56;27.30;;;16.30;;
6852;SDS011;3465;42.144;24.722;2023-03-21T01:01:21;31.60;;;16.97;;
6852;SDS011;3465;42.144;24.722;2023-03-21T01:03:47;35.97;;;17.07;;
6852;SDS011;3465;42.144;24.722;2023-03-21T01:06:15;34.70;;;17.43;;
6852;SDS011;3465;42.144;24.722;2023-03-21T01:08:43;37.17;;;17.20;;
6852;SDS011;3465;42.144;24.722;2023-03-21T01:11:14;30.23;;;16.60;;
6852;SDS011;3465;42.144;24.722;2023-03-21T01:13:41;39.00;;;16.90;;
6852;SDS011;3465;42.144;24.722;2023-03-21T01:16:08;34.57;;;16.43;;
6852;SDS011;3465;42.144;24.722;2023-03-21T01:18:34;41.07;;;18.43;;
6852;SDS011;3465;42.144;24.722;2023-03-21T01:21:01;32.50;;;17.40;;
6852;SDS011;3465;42.144;24.722;2023-03-21T01:23:32;37.00;;;17.93;;
6852;SDS011;3465;42.144;24.722;2023-03-21T01:25:57;32.40;;;18.20;;
6852;SDS011;3465;42.144;24.722;2023-03-21T01:28:26;32.30;;;17.33;;
6852;SDS011;3465;42.144;24.722;2023-03-21T01:30:53;34.43;;;18.40;;
6852;SDS011;3465;42.144;24.722;2023-03-21T01:33:19;31.07;;;17.40;;
6852;SDS011;3465;42.144;24.722;2023-03-21T01:35:45;36.77;;;16.87;;
6852;SDS011;3465;42.144;24.722;2023-03-21T01:38:10;33.70;;;17.40;;
6852;SDS011;3465;42.144;24.722;2023-03-21T01:40:36;35.97;;;17.63;;
6852;SDS011;3465;42.144;24.722;2023-03-21T01:43:03;36.17;;;18.37;;
6852;SDS011;3465;42.144;24.722;2023-03-21T01:48:39;33.20;;;18.00;;
6852;SDS011;3465;42.144;24.722;2023-03-21T01:51:08;36.67;;;17.73;;
6852;SDS011;3465;42.144;24.722;2023-03-21T01:53:36;32.50;;;17.40;;
6852;SDS011;3465;42.144;24.722;2023-03-21T01:58:47;39.90;;;18.60;;
6852;SDS011;3465;42.144;24.722;2023-03-21T02:01:14;32.47;;;18.03;;
6852;SDS011;3465;42.144;24.722;2023-03-21T02:03:41;34.17;;;17.57;;
6852;SDS011;3465;42.144;24.722;2023-03-21T02:06:21;35.10;;;17.70;;
6852;SDS011;3465;42.144;24.722;2023-03-21T02:08:48;37.77;;;17.97;;
6852;SDS011;3465;42.144;24.722;2023-03-21T02:11:14;33.53;;;17.93;;
6852;SDS011;3465;42.144;24.722;2023-03-21T02:13:41;37.40;;;18.13;;
6852;SDS011;3465;42.144;24.722;2023-03-21T02:26:56;34.77;;;19.30;;
6852;SDS011;3465;42.144;24.722;2023-03-21T02:32:30;33.70;;;17.53;;
6852;SDS011;3465;42.144;24.722;2023-03-21T02:40:16;36.60;;;18.77;;
6852;SDS011;3465;42.144;24.722;2023-03-21T02:42:51;34.30;;;18.47;;
6852;SDS011;3465;42.144;24.722;2023-03-21T02:47:46;42.57;;;19.10;;
6852;SDS011;3465;42.144;24.722;2023-03-21T02:50:18;37.90;;;20.67;;
6852;SDS011;3465;42.144;24.722;2023-03-21T02:52:51;35.53;;;18.87;;
6852;SDS011;3465;42.144;24.722;2023-03-21T02:55:21;46.83;;;20.03;;
6852;SDS011;3465;42.144;24.722;2023-03-21T02:57:50;42.60;;;20.97;;
6852;SDS011;3465;42.144;24.722;2023-03-21T03:00:19;35.00;;;18.17;;
6852;SDS011;3465;42.144;24.722;2023-03-21T03:02:47;42.03;;;20.03;;
6852;SDS011;3465;42.144;24.722;2023-03-21T03:05:27;36.57;;;19.27;;
6852;SDS011;3465;42.144;24.722;2023-03-21T03:08:12;32.57;;;18.27;;
6852;SDS011;3465;42.144;24.722;2023-03-21T03:19:09;33.90;;;19.13;;
6852;SDS011;3465;42.144;24.722;2023-03-21T03:21:41;41.13;;;20.23;;
6852;SDS011;3465;42.144;24.722;2023-03-21T03:27:12;42.53;;;20.47;;
6852;SDS011;3465;42.144;24.722;2023-03-21T03:29:44;36.47;;;19.07;;
6852;SDS011;3465;42.144;24.722;2023-03-21T03:32:14;32.57;;;18.90;;
6852;SDS011;3465;42.144;24.722;2023-03-21T03:34:43;41.17;;;19.30;;
6852;SDS011;3465;42.144;24.722;2023-03-21T03:37:16;36.00;;;20.13;;
6852;SDS011;3465;42.144;24.722;2023-03-21T03:39:50;38.53;;;19.70;;
6852;SDS011;3465;42.144;24.722;2023-03-21T03:42:29;37.27;;;17.93;;
6852;SDS011;3465;42.144;24.722;2023-03-21T03:45:00;35.27;;;18.17;;
6852;SDS011;3465;42.144;24.722;2023-03-21T03:47:36;33.90;;;16.90;;
6852;SDS011;3465;42.144;24.722;2023-03-21T03:52:48;31.30;;;17.17;;
6852;SDS011;3465;42.144;24.722;2023-03-21T03:55:16;34.70;;;17.17;;
6852;SDS011;3465;42.144;24.722;2023-03-21T03:57:45;31.37;;;16.63;;
6852;SDS011;3465;42.144;24.722;2023-03-21T04:00:12;26.87;;;16.63;;
6852;SDS011;3465;42.144;24.722;2023-03-21T04:02:40;31.53;;;15.23;;
6852;SDS011;3465;42.144;24.722;2023-03-21T04:05:05;34.00;;;16.57;;
6852;SDS011;3465;42.144;24.722;2023-03-21T04:07:31;37.90;;;16.77;;
6852;SDS011;3465;42.144;24.722;2023-03-21T04:09:57;47.83;;;15.93;;
6852;SDS011;3465;42.144;24.722;2023-03-21T04:12:22;30.10;;;16.43;;
6852;SDS011;3465;42.144;24.722;2023-03-21T04:14:48;30.53;;;16.20;;
6852;SDS011;3465;42.144;24.722;2023-03-21T04:17:14;34.93;;;16.77;;
6852;SDS011;3465;42.144;24.722;2023-03-21T04:19:39;38.03;;;17.17;;
6852;SDS011;3465;42.144;24.722;2023-03-21T04:22:05;30.07;;;17.30;;
6852;SDS011;3465;42.144;24.722;2023-03-21T04:24:31;34.50;;;16.77;;
6852;SDS011;3465;42.144;24.722;2023-03-21T04:26:58;31.67;;;17.93;;
6852;SDS011;3465;42.144;24.722;2023-03-21T04:29:24;32.37;;;17.43;;
6852;SDS011;3465;42.144;24.722;2023-03-21T04:31:50;31.33;;;16.83;;
6852;SDS011;3465;42.144;24.722;2023-03-21T04:34:15;35.40;;;16.87;;
6852;SDS011;3465;42.144;24.722;2023-03-21T04:36:41;32.37;;;16.50;;
6852;SDS011;3465;42.144;24.722;2023-03-21T04:39:13;35.67;;;16.50;;
6852;SDS011;3465;42.144;24.722;2023-03-21T04:41:39;40.60;;;17.67;;
6852;SDS011;3465;42.144;24.722;2023-03-21T04:44:07;35.90;;;18.07;;
6852;SDS011;3465;42.144;24.722;2023-03-21T04:46:33;42.10;;;18.67;;
6852;SDS011;3465;42.144;24.722;2023-03-21T04:48:59;38.37;;;17.83;;
6852;SDS011;3465;42.144;24.722;2023-03-21T04:51:25;34.77;;;19.53;;
6852;SDS011;3465;42.144;24.722;2023-03-21T04:53:51;37.57;;;18.50;;
6852;SDS011;3465;42.144;24.722;2023-03-21T04:56:21;33.20;;;17.63;;
6852;SDS011;3465;42.144;24.722;2023-03-21T04:58:56;35.60;;;17.33;;
6852;SDS011;3465;42.144;24.722;2023-03-21T05:01:26;35.93;;;17.20;;
6852;SDS011;3465;42.144;24.722;2023-03-21T05:03:58;33.97;;;17.43;;
6852;SDS011;3465;42.144;24.722;2023-03-21T05:06:26;36.53;;;17.67;;
6852;SDS011;3465;42.144;24.722;2023-03-21T05:08:55;34.30;;;17.53;;
6852;SDS011;3465;42.144;24.722;2023-03-21T05:11:24;33.13;;;16.90;;
6852;SDS011;3465;42.144;24.722;2023-03-21T05:13:51;35.70;;;18.30;;
6852;SDS011;3465;42.144;24.722;2023-03-21T05:16:16;38.53;;;17.23;;
6852;SDS011;3465;42.144;24.722;2023-03-21T05:18:42;32.93;;;16.83;;
6852;SDS011;3465;42.144;24.722;2023-03-21T05:21:07;40.70;;;17.97;;
6852;SDS011;3465;42.144;24.722;2023-03-21T05:23:34;38.23;;;16.43;;
6852;SDS011;3465;42.144;24.722;2023-03-21T05:26:06;36.70;;;17.93;;
6852;SDS011;3465;42.144;24.722;2023-03-21T05:28:33;43.47;;;17.93;;
6852;SDS011;3465;42.144;24.722;2023-03-21T05:31:03;35.43;;;16.87;;
6852;SDS011;3465;42.144;24.722;2023-03-21T05:33:30;41.50;;;16.67;;
6852;SDS011;3465;42.144;24.722;2023-03-21T05:35:56;35.40;;;16.60;;
6852;SDS011;3465;42.144;24.722;2023-03-21T05:38:21;34.10;;;16.80;;
6852;SDS011;3465;42.144;24.722;2023-03-21T05:40:47;35.30;;;17.30;;
6852;SDS011;3465;42.144;24.722;2023-03-21T05:43:17;36.73;;;17.33;;
6852;SDS011;3465;42.144;24.722;2023-03-21T05:45:42;41.10;;;17.90;;
6852;SDS011;3465;42.144;24.722;2023-03-21T05:48:08;35.80;;;17.90;;
6852;SDS011;3465;42.144;24.722;2023-03-21T05:50:33;41.70;;;17.73;;
6852;SDS011;3465;42.144;24.722;2023-03-21T05:52:59;32.90;;;17.77;;
6852;SDS011;3465;42.144;24.722;2023-03-21T05:55:24;38.00;;;18.37;;
6852;SDS011;3465;42.144;24.722;2023-03-21T05:57:50;40.70;;;18.77;;
6852;SDS011;3465;42.144;24.722;2023-03-21T06:00:15;42.37;;;18.80;;
6852;SDS011;3465;42.144;24.722;2023-03-21T06:02:42;43.07;;;18.97;;
6852;SDS011;3465;42.144;24.722;2023-03-21T06:05:08;36.20;;;18.00;;
6852;SDS011;3465;42.144;24.722;2023-03-21T06:07:34;41.97;;;18.33;;
6852;SDS011;3465;42.144;24.722;2023-03-21T06:10:01;39.67;;;17.53;;
6852;SDS011;3465;42.144;24.722;2023-03-21T06:12:27;35.73;;;18.13;;
6852;SDS011;3465;42.144;24.722;2023-03-21T06:14:52;37.53;;;18.87;;
6852;SDS011;3465;42.144;24.722;2023-03-21T06:17:18;41.77;;;18.70;;
6852;SDS011;3465;42.144;24.722;2023-03-21T06:19:43;43.40;;;19.23;;
6852;SDS011;3465;42.144;24.722;2023-03-21T06:22:09;46.73;;;20.10;;
6852;SDS011;3465;42.144;24.722;2023-03-21T06:24:35;41.50;;;18.20;;
6852;SDS011;3465;42.144;24.722;2023-03-21T06:27:00;38.67;;;17.03;;
6852;SDS011;3465;42.144;24.722;2023-03-21T06:29:26;34.67;;;16.90;;
6852;SDS011;3465;42.144;24.722;2023-03-21T06:31:51;33.50;;;16.13;;
6852;SDS011;3465;42.144;24.722;2023-03-21T06:34:16;31.13;;;15.07;;
6852;SDS011;3465;42.144;24.722;2023-03-21T06:36:42;35.07;;;16.33;;
6852;SDS011;3465;42.144;24.722;2023-03-21T06:39:08;39.03;;;15.17;;
6852;SDS011;3465;42.144;24.722;2023-03-21T06:41:34;32.87;;;14.17;;
6852;SDS011;3465;42.144;24.722;2023-03-21T06:44:00;31.50;;;14.87;;
6852;SDS011;3465;42.144;24.722;2023-03-21T06:46:26;30.43;;;15.60;;
6852;SDS011;3465;42.144;24.722;2023-03-21T06:48:52;28.97;;;14.17;;
6852;SDS011;3465;42.144;24.722;2023-03-21T06:51:17;29.80;;;14.17;;
6852;SDS011;3465;42.144;24.722;2023-03-21T06:53:43;27.80;;;14.33;;
6852;SDS011;3465;42.144;24.722;2023-03-21T06:56:09;32.73;;;15.30;;
6852;SDS011;3465;42.144;24.722;2023-03-21T06:58:35;25.57;;;14.33;;
6852;SDS011;3465;42.144;24.722;2023-03-21T07:01:01;28.13;;;14.07;;
6852;SDS011;3465;42.144;24.722;2023-03-21T07:03:27;39.17;;;16.70;;
6852;SDS011;3465;42.144;24.722;2023-03-21T07:05:53;32.07;;;14.80;;
6852;SDS011;3465;42.144;24.722;2023-03-21T07:08:20;32.87;;;15.10;;
6852;SDS011;3465;42.144;24.722;2023-03-21T07:10:45;33.57;;;15.63;;
6852;SDS011;3465;42.144;24.722;2023-03-21T07:13:11;30.37;;;15.50;;
6852;SDS011;3465;42.144;24.722;2023-03-21T07:15:37;38.27;;;15.53;;
6852;SDS011;3465;42.144;24.722;2023-03-21T07:18:04;34.83;;;15.57;;
6852;SDS011;3465;42.144;24.722;2023-03-21T07:20:30;30.13;;;14.73;;
6852;SDS011;3465;42.144;24.722;2023-03-21T07:22:56;33.47;;;16.07;;
6852;SDS011;3465;42.144;24.722;2023-03-21T07:25:21;39.50;;;15.97;;
6852;SDS011;3465;42.144;24.722;2023-03-21T07:27:47;31.53;;;15.57;;
6852;SDS011;3465;42.144;24.722;2023-03-21T07:30:13;32.03;;;16.40;;
6852;SDS011;3465;42.144;24.722;2023-03-21T07:32:39;28.27;;;16.07;;
6852;SDS011;3465;42.144;24.722;2023-03-21T07:35:14;36.17;;;16.47;;
6852;SDS011;3465;42.144;24.722;2023-03-21T07:37:41;31.30;;;15.77;;
6852;SDS011;3465;42.144;24.722;2023-03-21T07:40:07;26.47;;;15.77;;
6852;SDS011;3465;42.144;24.722;2023-03-21T07:42:35;33.37;;;16.27;;
6852;SDS011;3465;42.144;24.722;2023-03-21T07:45:02;32.43;;;15.40;;
6852;SDS011;3465;42.144;24.722;2023-03-21T07:47:29;30.80;;;15.63;;
6852;SDS011;3465;42.144;24.722;2023-03-21T07:49:55;33.70;;;16.30;;
6852;SDS011;3465;42.144;24.722;2023-03-21T07:52:20;26.77;;;14.70;;
6852;SDS011;3465;42.144;24.722;2023-03-21T07:54:46;25.47;;;14.13;;
6852;SDS011;3465;42.144;24.722;2023-03-21T07:57:11;26.23;;;14.47;;
6852;SDS011;3465;42.144;24.722;2023-03-21T07:59:36;30.50;;;13.57;;
6852;SDS011;3465;42.144;24.722;2023-03-21T08:02:02;23.75;;;12.98;;
6852;SDS011;3465;42.144;24.722;2023-03-21T08:04:27;26.97;;;13.37;;
6852;SDS011;3465;42.144;24.722;2023-03-21T08:06:53;33.10;;;14.83;;
6852;SDS011;3465;42.144;24.722;2023-03-21T08:09:18;20.98;;;11.77;;
6852;SDS011;3465;42.144;24.722;2023-03-21T08:11:44;22.98;;;11.57;;
6852;SDS011;3465;42.144;24.722;2023-03-21T08:14:09;22.17;;;12.20;;
6852;SDS011;3465;42.144;24.722;2023-03-21T08:16:35;25.83;;;12.80;;
6852;SDS011;3465;42.144;24.722;2023-03-21T08:19:00;22.10;;;11.67;;
6852;SDS011;3465;42.144;24.722;2023-03-21T08:21:26;21.93;;;11.80;;
6852;SDS011;3465;42.144;24.722;2023-03-21T08:23:51;23.60;;;11.83;;
6852;SDS011;3465;42.144;24.722;2023-03-21T08:26:17;25.97;;;11.83;;
6852;SDS011;3465;42.144;24.722;2023-03-21T08:28:43;19.33;;;12.10;;
6852;SDS011;3465;42.144;24.722;2023-03-21T08:31:10;26.10;;;13.27;;
6852;SDS011;3465;42.144;24.722;2023-03-21T08:33:36;29.80;;;14.10;;
6852;SDS011;3465;42.144;24.722;2023-03-21T08:36:03;30.33;;;15.27;;
6852;SDS011;3465;42.144;24.722;2023-03-21T08:38:29;27.27;;;12.83;;
6852;SDS011;3465;42.144;24.722;2023-03-21T08:40:57;21.40;;;11.90;;
6852;SDS011;3465;42.144;24.722;2023-03-21T08:43:27;24.00;;;11.70;;
6852;SDS011;3465;42.144;24.722;2023-03-21T08:45:53;20.23;;;12.07;;
6852;SDS011;3465;42.144;24.722;2023-03-21T08:48:19;29.60;;;12.45;;
6852;SDS011;3465;42.144;24.722;2023-03-21T08:50:45;25.65;;;12.52;;
6852;SDS011;3465;42.144;24.722;2023-03-21T08:53:11;23.43;;;13.37;;
6852;SDS011;3465;42.144;24.722;2023-03-21T08:55:36;27.17;;;13.50;;
6852;SDS011;3465;42.144;24.722;2023-03-21T08:58:02;29.53;;;13.73;;
6852;SDS011;3465;42.144;24.722;2023-03-21T09:00:27;24.13;;;13.23;;
6852;SDS011;3465;42.144;24.722;2023-03-21T09:02:53;25.03;;;13.30;;
6852;SDS011;3465;42.144;24.722;2023-03-21T09:05:20;28.60;;;13.93;;
6852;SDS011;3465;42.144;24.722;2023-03-21T09:07:47;34.80;;;13.77;;
6852;SDS011;3465;42.144;24.722;2023-03-21T09:10:17;24.23;;;13.30;;
6852;SDS011;3465;42.144;24.722;2023-03-21T09:12:44;30.40;;;12.67;;
6852;SDS011;3465;42.144;24.722;2023-03-21T09:15:10;24.10;;;13.20;;
6852;SDS011;3465;42.144;24.722;2023-03-21T09:17:36;27.08;;;13.50;;
6852;SDS011;3465;42.144;24.722;2023-03-21T09:20:07;24.75;;;13.18;;
6852;SDS011;3465;42.144;24.722;2023-03-21T09:22:42;21.23;;;12.57;;
6852;SDS011;3465;42.144;24.722;2023-03-21T09:25:12;26.40;;;13.52;;
6852;SDS011;3465;42.144;24.722;2023-03-21T09:27:39;22.60;;;12.43;;
6852;SDS011;3465;42.144;24.722;2023-03-21T09:30:06;26.98;;;13.27;;
6852;SDS011;3465;42.144;24.722;2023-03-21T09:32:33;25.15;;;13.15;;
6852;SDS011;3465;42.144;24.722;2023-03-21T09:34:59;25.83;;;12.75;;
6852;SDS011;3465;42.144;24.722;2023-03-21T09:37:25;27.52;;;11.98;;
6852;SDS011;3465;42.144;24.722;2023-03-21T09:39:51;28.40;;;13.15;;
6852;SDS011;3465;42.144;24.722;2023-03-21T09:42:24;25.40;;;12.77;;
6852;SDS011;3465;42.144;24.722;2023-03-21T09:45:24;24.13;;;12.70;;
6852;SDS011;3465;42.144;24.722;2023-03-21T09:47:59;24.42;;;13.10;;
6852;SDS011;3465;42.144;24.722;2023-03-21T09:50:26;31.02;;;13.70;;
6852;SDS011;3465;42.144;24.722;2023-03-21T09:53:13;22.52;;;13.18;;
6852;SDS011;3465;42.144;24.722;2023-03-21T09:55:47;23.50;;;11.95;;
6852;SDS011;3465;42.144;24.722;2023-03-21T10:00:58;28.35;;;15.48;;
6852;SDS011;3465;42.144;24.722;2023-03-21T10:03:30;20.92;;;12.77;;
6852;SDS011;3465;42.144;24.722;2023-03-21T10:05:59;23.80;;;12.65;;
6852;SDS011;3465;42.144;24.722;2023-03-21T10:08:32;34.60;;;12.57;;
6852;SDS011;3465;42.144;24.722;2023-03-21T10:11:12;27.85;;;12.90;;
6852;SDS011;3465;42.144;24.722;2023-03-21T10:13:50;59.83;;;33.83;;
6852;SDS011;3465;42.144;24.722;2023-03-21T10:16:41;24.80;;;12.77;;
6852;SDS011;3465;42.144;24.722;2023-03-21T10:19:10;22.65;;;12.70;;
6852;SDS011;3465;42.144;24.722;2023-03-21T10:21:42;22.73;;;11.63;;
6852;SDS011;3465;42.144;24.722;2023-03-21T10:24:11;23.08;;;10.55;;
6852;SDS011;3465;42.144;24.722;2023-03-21T10:26:40;24.42;;;11.88;;
6852;SDS011;3465;42.144;24.722;2023-03-21T10:29:11;21.60;;;11.98;;
6852;SDS011;3465;42.144;24.722;2023-03-21T10:31:40;22.25;;;12.18;;
6852;SDS011;3465;42.144;24.722;2023-03-21T10:34:27;21.23;;;11.25;;
6852;SDS011;3465;42.144;24.722;2023-03-21T10:37:00;23.63;;;11.93;;
6852;SDS011;3465;42.144;24.722;2023-03-21T10:39:37;20.30;;;12.18;;
6852;SDS011;3465;42.144;24.722;2023-03-21T10:42:05;27.05;;;11.93;;
6852;SDS011;3465;42.144;24.722;2023-03-21T10:44:38;26.52;;;12.07;;
6852;SDS011;3465;42.144;24.722;2023-03-21T10:47:05;20.17;;;11.07;;
6852;SDS011;3465;42.144;24.722;2023-03-21T10:49:36;28.60;;;11.65;;
6852;SDS011;3465;42.144;24.722;2023-03-21T10:52:04;24.42;;;12.45;;
6852;SDS011;3465;42.144;24.722;2023-03-21T10:54:33;25.70;;;11.77;;
6852;SDS011;3465;42.144;24.722;2023-03-21T10:57:07;24.50;;;11.27;;
6852;SDS011;3465;42.144;24.722;2023-03-21T10:59:40;21.13;;;11.05;;
6852;SDS011;3465;42.144;24.722;2023-03-21T11:02:17;19.20;;;11.38;;
6852;SDS011;3465;42.144;24.722;2023-03-21T11:04:52;23.65;;;12.27;;
6852;SDS011;3465;42.144;24.722;2023-03-21T11:07:19;26.63;;;14.68;;
6852;SDS011;3465;42.144;24.722;2023-03-21T11:09:49;23.02;;;11.55;;
6852;SDS011;3465;42.144;24.722;2023-03-21T11:12:27;21.60;;;11.43;;
6852;SDS011;3465;42.144;24.722;2023-03-21T11:14:53;22.98;;;11.90;;
6852;SDS011;3465;42.144;24.722;2023-03-21T11:17:19;27.80;;;12.20;;
6852;SDS011;3465;42.144;24.722;2023-03-21T11:19:51;23.10;;;11.85;;
6852;SDS011;3465;42.144;24.722;2023-03-21T11:22:25;25.25;;;13.20;;
6852;SDS011;3465;42.144;24.722;2023-03-21T11:25:00;27.55;;;12.85;;
6852;SDS011;3465;42.144;24.722;2023-03-21T11:27:30;16.90;;;10.13;;
6852;SDS011;3465;42.144;24.722;2023-03-21T11:29:56;20.73;;;10.50;;
6852;SDS011;3465;42.144;24.722;2023-03-21T11:32:30;21.63;;;10.68;;
6852;SDS011;3465;42.144;24.722;2023-03-21T11:34:59;20.25;;;10.45;;
6852;SDS011;3465;42.144;24.722;2023-03-21T11:37:32;21.45;;;10.45;;
6852;SDS011;3465;42.144;24.722;2023-03-21T11:42:57;16.83;;;10.77;;
6852;SDS011;3465;42.144;24.722;2023-03-21T11:45:29;21.38;;;10.60;;
6852;SDS011;3465;42.144;24.722;2023-03-21T11:47:58;22.00;;;11.18;;
6852;SDS011;3465;42.144;24.722;2023-03-21T11:50:27;22.45;;;11.40;;
6852;SDS011;3465;42.144;24.722;2023-03-21T12:06:37;22.20;;;11.48;;
6852;SDS011;3465;42.144;24.722;2023-03-21T12:09:17;17.13;;;11.48;;
6852;SDS011;3465;42.144;24.722;2023-03-21T12:12:06;24.00;;;11.07;;
6852;SDS011;3465;42.144;24.722;2023-03-21T12:26:07;21.20;;;11.73;;
6852;SDS011;3465;42.144;24.722;2023-03-21T12:41:59;16.85;;;10.32;;
6852;SDS011;3465;42.144;24.722;2023-03-21T12:44:38;24.00;;;11.15;;
6852;SDS011;3465;42.144;24.722;2023-03-21T12:49:49;18.13;;;10.10;;
6852;SDS011;3465;42.144;24.722;2023-03-21T12:52:20;17.13;;;10.48;;
6852;SDS011;3465;42.144;24.722;2023-03-21T12:54:58;24.40;;;11.50;;
6852;SDS011;3465;42.144;24.722;2023-03-21T12:57:31;19.63;;;10.65;;
6852;SDS011;3465;42.144;24.722;2023-03-21T13:02:54;20.40;;;9.18;;
6852;SDS011;3465;42.144;24.722;2023-03-21T13:05:30;20.88;;;9.75;;
6852;SDS011;3465;42.144;24.722;2023-03-21T13:08:10;15.52;;;8.95;;
6852;SDS011;3465;42.144;24.722;2023-03-21T13:11:10;19.85;;;8.82;;
6852;SDS011;3465;42.144;24.722;2023-03-21T13:24:31;16.27;;;9.23;;
6852;SDS011;3465;42.144;24.722;2023-03-21T13:26:58;25.67;;;9.77;;
6852;SDS011;3465;42.144;24.722;2023-03-21T13:29:42;15.33;;;9.00;;
6852;SDS011;3465;42.144;24.722;2023-03-21T13:34:59;15.83;;;9.10;;
6852;SDS011;3465;42.144;24.722;2023-03-21T13:38:13;23.10;;;9.30;;
6852;SDS011;3465;42.144;24.722;2023-03-21T13:40:50;19.17;;;9.30;;
6852;SDS011;3465;42.144;24.722;2023-03-21T13:46:04;21.97;;;9.80;;
6852;SDS011;3465;42.144;24.722;2023-03-21T13:48:41;22.00;;;9.70;;
6852;SDS011;3465;42.144;24.722;2023-03-21T13:51:09;21.67;;;9.10;;
6852;SDS011;3465;42.144;24.722;2023-03-21T13:53:36;18.17;;;9.67;;
6852;SDS011;3465;42.144;24.722;2023-03-21T13:58:38;20.80;;;10.97;;
6852;SDS011;3465;42.144;24.722;2023-03-21T14:03:58;28.00;;;10.63;;
6852;SDS011;3465;42.144;24.722;2023-03-21T14:06:42;20.30;;;10.00;;
6852;SDS011;3465;42.144;24.722;2023-03-21T14:11:50;16.97;;;10.30;;
6852;SDS011;3465;42.144;24.722;2023-03-21T14:14:18;24.33;;;11.00;;
6852;SDS011;3465;42.144;24.722;2023-03-21T14:16:46;17.70;;;9.17;;
6852;SDS011;3465;42.144;24.722;2023-03-21T14:19:11;18.73;;;10.40;;
6852;SDS011;3465;42.144;24.722;2023-03-21T14:21:37;22.97;;;10.83;;
6852;SDS011;3465;42.144;24.722;2023-03-21T14:24:13;20.43;;;9.40;;
6852;SDS011;3465;42.144;24.722;2023-03-21T14:26:45;19.63;;;9.53;;
6852;SDS011;3465;42.144;24.722;2023-03-21T14:29:17;19.40;;;9.93;;
6852;SDS011;3465;42.144;24.722;2023-03-21T14:31:48;21.43;;;10.33;;
6852;SDS011;3465;42.144;24.722;2023-03-21T14:34:14;22.60;;;10.03;;
6852;SDS011;3465;42.144;24.722;2023-03-21T14:36:41;18.93;;;10.03;;
6852;SDS011;3465;42.144;24.722;2023-03-21T14:39:27;20.47;;;10.00;;
6852;SDS011;3465;42.144;24.722;2023-03-21T14:41:53;27.10;;;11.53;;
6852;SDS011;3465;42.144;24.722;2023-03-21T14:44:24;22.37;;;10.77;;
6852;SDS011;3465;42.144;24.722;2023-03-21T14:47:37;22.03;;;10.87;;
6852;SDS011;3465;42.144;24.722;2023-03-21T14:49:45;20.40;;;10.97;;
6852;SDS011;3465;42.144;24.722;2023-03-21T14:52:13;23.90;;;10.97;;
6852;SDS011;3465;42.144;24.722;2023-03-21T14:54:43;20.63;;;10.03;;
6852;SDS011;3465;42.144;24.722;2023-03-21T14:57:12;25.60;;;10.13;;
6852;SDS011;3465;42.144;24.722;2023-03-21T14:59:42;26.20;;;10.90;;
6852;SDS011;3465;42.144;24.722;2023-03-21T15:02:18;20.93;;;11.13;;
6852;SDS011;3465;42.144;24.722;2023-03-21T15:04:50;26.40;;;12.37;;
6852;SDS011;3465;42.144;24.722;2023-03-21T15:07:31;24.70;;;11.47;;
6852;SDS011;3465;42.144;24.722;2023-03-21T15:10:05;26.83;;;12.93;;
6852;SDS011;3465;42.144;24.722;2023-03-21T15:12:45;30.27;;;13.87;;
6852;SDS011;3465;42.144;24.722;2023-03-21T15:15:36;24.10;;;11.33;;
6852;SDS011;3465;42.144;24.722;2023-03-21T15:18:04;32.70;;;12.03;;
6852;SDS011;3465;42.144;24.722;2023-03-21T15:20:31;27.53;;;11.17;;
6852;SDS011;3465;42.144;24.722;2023-03-21T15:23:02;22.30;;;11.63;;
6852;SDS011;3465;42.144;24.722;2023-03-21T15:25:31;27.90;;;12.60;;
6852;SDS011;3465;42.144;24.722;2023-03-21T15:27:59;25.43;;;12.43;;
6852;SDS011;3465;42.144;24.722;2023-03-21T15:30:26;25.67;;;11.67;;
6852;SDS011;3465;42.144;24.722;2023-03-21T15:32:56;23.03;;;11.80;;
6852;SDS011;3465;42.144;24.722;2023-03-21T15:35:28;23.53;;;10.80;;
6852;SDS011;3465;42.144;24.722;2023-03-21T15:37:57;22.67;;;10.70;;
6852;SDS011;3465;42.144;24.722;2023-03-21T15:40:25;23.73;;;10.70;;
6852;SDS011;3465;42.144;24.722;2023-03-21T15:45:53;32.03;;;11.57;;
6852;SDS011;3465;42.144;24.722;2023-03-21T15:48:20;23.80;;;11.23;;
6852;SDS011;3465;42.144;24.722;2023-03-21T15:51:03;24.10;;;11.03;;
6852;SDS011;3465;42.144;24.722;2023-03-21T15:53:34;21.43;;;10.93;;
6852;SDS011;3465;42.144;24.722;2023-03-21T15:56:02;17.77;;;9.87;;
6852;SDS011;3465;42.144;24.722;2023-03-21T15:58:36;24.57;;;11.07;;
6852;SDS011;3465;42.144;24.722;2023-03-21T16:01:11;21.33;;;10.63;;
6852;SDS011;3465;42.144;24.722;2023-03-21T16:03:42;21.87;;;10.90;;
6852;SDS011;3465;42.144;24.722;2023-03-21T16:08:37;26.47;;;10.70;;
6852;SDS011;3465;42.144;24.722;2023-03-21T16:13:40;21.23;;;11.00;;
6852;SDS011;3465;42.144;24.722;2023-03-21T16:16:06;34.53;;;12.40;;
6852;SDS011;3465;42.144;24.722;2023-03-21T16:18:41;28.13;;;11.53;;
6852;SDS011;3465;42.144;24.722;2023-03-21T16:21:13;27.27;;;10.80;;
6852;SDS011;3465;42.144;24.722;2023-03-21T16:23:40;20.97;;;9.97;;
6852;SDS011;3465;42.144;24.722;2023-03-21T16:26:09;25.70;;;9.67;;
6852;SDS011;3465;42.144;24.722;2023-03-21T16:28:36;21.63;;;10.20;;
6852;SDS011;3465;42.144;24.722;2023-03-21T16:31:01;20.03;;;9.80;;
6852;SDS011;3465;42.144;24.722;2023-03-21T16:33:27;21.33;;;10.60;;
6852;SDS011;3465;42.144;24.722;2023-03-21T16:35:52;25.57;;;10.47;;
6852;SDS011;3465;42.144;24.722;2023-03-21T16:38:21;27.23;;;10.30;;
6852;SDS011;3465;42.144;24.722;2023-03-21T16:40:47;24.37;;;10.50;;
6852;SDS011;3465;42.144;24.722;2023-03-21T16:43:15;19.83;;;11.30;;
6852;SDS011;3465;42.144;24.722;2023-03-21T16:45:40;30.67;;;12.23;;
6852;SDS011;3465;42.144;24.722;2023-03-21T16:48:06;26.43;;;11.10;;
6852;SDS011;3465;42.144;24.722;2023-03-21T16:50:38;35.10;;;12.90;;